createdAt,value
2019-04-14T00:01:32.709Z,25.17
2019-04-14T00:04:12.277Z,18.77
2019-04-14T00:06:41.973Z,19.87
2019-04-14T00:09:16.376Z,19.97
2019-04-14T00:11:46.150Z,21.53
2019-04-14T00:14:16.261Z,22.07
2019-04-14T00:16:45.269Z,22.03
2019-04-14T00:19:15.152Z,20.47
2019-04-14T00:21:45.366Z,25.60
2019-04-14T00:24:14.400Z,22.20
2019-04-14T00:26:44.501Z,18.80
2019-04-14T00:29:13.459Z,25.43
2019-04-14T00:31:43.265Z,23.90
2019-04-14T00:34:13.843Z,25.80
2019-04-14T00:37:01.178Z,24.40
2019-04-14T00:39:34.205Z,26.70
2019-04-14T00:42:23.427Z,21.93
2019-04-14T00:44:53.991Z,25.67
2019-04-14T00:47:24.652Z,23.23
2019-04-14T00:49:53.583Z,22.40
2019-04-14T00:52:23.373Z,22.33
2019-04-14T00:54:52.298Z,27.83
2019-04-14T00:57:22.366Z,23.67
2019-04-14T00:59:51.252Z,21.20
2019-04-14T01:02:21.083Z,25.37
2019-04-14T01:04:57.651Z,26.43
2019-04-14T01:07:24.143Z,24.67
2019-04-14T01:09:55.378Z,26.80
2019-04-14T01:12:27.764Z,28.57
2019-04-14T01:15:00.625Z,24.63
2019-04-14T01:17:30.813Z,25.50
2019-04-14T01:20:03.612Z,26.53
2019-04-14T01:22:33.503Z,22.53
2019-04-14T01:25:02.454Z,21.90
2019-04-14T01:27:31.988Z,24.53
2019-04-14T01:30:00.968Z,26.17
2019-04-14T01:32:30.500Z,26.27
2019-04-14T01:35:00.892Z,26.63
2019-04-14T01:37:31.085Z,25.23
2019-04-14T01:40:00.926Z,26.67
2019-04-14T01:42:31.952Z,23.40
2019-04-14T01:45:01.404Z,23.37
2019-04-14T01:47:31.323Z,27.30
2019-04-14T01:50:01.651Z,24.80
2019-04-14T01:52:43.778Z,22.53
2019-04-14T01:55:33.122Z,23.60
2019-04-14T01:58:03.676Z,23.73
2019-04-14T02:00:38.174Z,25.30
2019-04-14T02:03:08.345Z,25.73
2019-04-14T02:05:38.319Z,26.50
2019-04-14T02:08:07.439Z,24.50
2019-04-14T02:10:36.853Z,25.97
2019-04-14T02:13:07.076Z,25.47
2019-04-14T02:15:37.318Z,24.60
2019-04-14T02:18:07.676Z,24.07
2019-04-14T02:20:40.351Z,23.90
2019-04-14T02:23:10.355Z,23.03
2019-04-14T02:25:42.917Z,26.33
2019-04-14T02:28:11.758Z,23.87
2019-04-14T02:30:49.341Z,23.03
2019-04-14T02:33:38.963Z,24.93
2019-04-14T02:36:14.580Z,26.20
2019-04-14T02:38:47.357Z,22.47
2019-04-14T02:41:12.100Z,28.30
2019-04-14T02:44:00.143Z,25.93
2019-04-14T02:51:14.443Z,24.40
2019-04-14T02:53:42.043Z,25.97
2019-04-14T02:56:15.908Z,24.10
2019-04-14T02:58:45.984Z,26.03
2019-04-14T03:01:19.421Z,21.87
2019-04-14T03:03:41.052Z,24.23
2019-04-14T03:08:51.995Z,26.10
2019-04-14T03:11:11.660Z,27.53
2019-04-14T03:14:01.297Z,21.40
2019-04-14T03:16:15.219Z,23.63
2019-04-14T03:21:41.515Z,26.90
2019-04-14T03:24:13.012Z,28.97
2019-04-14T03:26:54.587Z,26.67
2019-04-14T03:29:45.076Z,27.33
2019-04-14T03:34:55.173Z,25.50
2019-04-14T03:39:38.847Z,29.23
2019-04-14T03:42:13.132Z,25.63
2019-04-14T03:44:41.413Z,24.20
2019-04-14T03:47:13.775Z,29.47
2019-04-14T03:52:31.677Z,25.60
2019-04-14T03:54:36.581Z,26.90
2019-04-14T03:56:55.818Z,25.43
2019-04-14T03:59:24.503Z,29.83
2019-04-14T04:01:54.280Z,24.23
2019-04-14T04:04:22.999Z,26.70
2019-04-14T04:06:51.586Z,24.13
2019-04-14T04:09:21.901Z,24.50
2019-04-14T04:11:50.483Z,22.57
2019-04-14T04:14:20.243Z,24.43
2019-04-14T04:16:53.353Z,24.30
2019-04-14T04:19:23.611Z,21.33
2019-04-14T04:21:53.817Z,24.33
2019-04-14T04:24:41.067Z,24.00
2019-04-14T04:27:11.288Z,23.00
2019-04-14T04:29:57.533Z,25.77
2019-04-14T04:32:44.802Z,29.30
2019-04-14T04:35:17.939Z,23.67
2019-04-14T04:37:52.022Z,26.03
2019-04-14T04:40:24.599Z,26.00
2019-04-14T04:42:52.697Z,24.30
2019-04-14T04:45:21.382Z,28.20
2019-04-14T04:47:51.213Z,24.33
2019-04-14T04:50:19.921Z,27.43
2019-04-14T04:52:49.446Z,23.63
2019-04-14T04:55:18.120Z,30.07
2019-04-14T04:57:46.708Z,23.13
2019-04-14T05:00:18.170Z,26.33
2019-04-14T05:02:46.788Z,22.70
2019-04-14T05:05:44.985Z,26.43
2019-04-14T05:08:13.595Z,27.13
2019-04-14T05:10:46.596Z,23.80
2019-04-14T05:13:16.148Z,27.83
2019-04-14T05:15:46.607Z,23.33
2019-04-14T05:18:17.830Z,27.60
2019-04-14T05:20:46.510Z,26.17
2019-04-14T05:23:17.059Z,27.23
2019-04-14T05:25:47.438Z,28.97
2019-04-14T05:28:16.194Z,23.53
2019-04-14T05:30:45.721Z,27.13
2019-04-14T05:33:14.418Z,26.17
2019-04-14T05:35:42.994Z,23.53
2019-04-14T05:38:12.583Z,24.53
2019-04-14T05:40:41.249Z,26.47
2019-04-14T05:43:09.892Z,31.00
2019-04-14T05:45:39.487Z,30.00
2019-04-14T05:48:08.167Z,30.27
2019-04-14T05:50:37.640Z,25.83
2019-04-14T05:53:06.537Z,28.33
2019-04-14T05:55:35.250Z,29.27
2019-04-14T05:58:04.057Z,27.10
2019-04-14T06:00:34.205Z,29.73
2019-04-14T06:03:03.815Z,29.17
2019-04-14T06:05:32.452Z,30.10
2019-04-14T06:08:00.989Z,28.87
2019-04-14T06:10:29.619Z,28.60
2019-04-14T06:12:58.337Z,27.03
2019-04-14T06:15:26.893Z,29.57
2019-04-14T06:17:55.499Z,31.60
2019-04-14T06:20:24.066Z,31.33
2019-04-14T06:22:52.673Z,25.60
2019-04-14T06:25:21.257Z,25.30
2019-04-14T06:27:49.835Z,27.17
2019-04-14T06:30:29.175Z,26.87
2019-04-14T06:32:59.392Z,26.67
2019-04-14T06:35:32.730Z,23.03
2019-04-14T06:38:05.662Z,28.50
2019-04-14T06:40:34.884Z,29.20
2019-04-14T06:43:03.534Z,26.97
2019-04-14T06:45:32.131Z,30.70
2019-04-14T06:48:02.240Z,27.53
2019-04-14T06:50:30.862Z,29.90
2019-04-14T06:52:59.547Z,26.87
2019-04-14T06:55:28.125Z,27.87
2019-04-14T06:57:56.686Z,27.13
2019-04-14T07:00:25.488Z,27.13
2019-04-14T07:02:54.081Z,30.37
2019-04-14T07:05:22.741Z,27.80
2019-04-14T07:07:57.212Z,27.30
2019-04-14T07:10:23.726Z,28.37
2019-04-14T07:12:52.313Z,30.93
2019-04-14T07:15:20.875Z,29.87
2019-04-14T07:17:49.482Z,32.80
2019-04-14T07:20:18.042Z,31.60
2019-04-14T07:22:46.600Z,28.53
2019-04-14T07:25:15.206Z,30.27
2019-04-14T07:27:43.772Z,27.83
2019-04-14T07:30:16.853Z,30.03
2019-04-14T07:32:47.073Z,29.90
2019-04-14T07:35:26.196Z,26.20
2019-04-14T07:38:04.999Z,28.43
2019-04-14T07:40:44.482Z,28.83
2019-04-14T07:43:17.481Z,26.03
2019-04-14T07:45:50.339Z,26.23
2019-04-14T07:48:20.565Z,26.83
2019-04-14T07:50:53.800Z,28.57
2019-04-14T07:53:29.709Z,31.37
2019-04-14T07:56:15.897Z,29.30
2019-04-14T07:59:02.512Z,27.10
2019-04-14T08:01:34.265Z,32.70
2019-04-14T08:04:07.096Z,27.30
2019-04-14T08:06:38.296Z,28.27
2019-04-14T08:09:06.994Z,30.93
2019-04-14T08:11:35.640Z,26.17
2019-04-14T08:14:04.449Z,24.27
2019-04-14T08:16:34.688Z,24.13
2019-04-14T08:19:03.323Z,24.03
2019-04-14T08:21:37.961Z,26.93
2019-04-14T08:24:06.634Z,23.40
2019-04-14T08:26:36.731Z,20.93
2019-04-14T08:29:05.510Z,25.23
2019-04-14T08:31:34.074Z,23.40
2019-04-14T08:34:02.718Z,25.20
2019-04-14T08:36:34.277Z,17.93
2019-04-14T08:39:03.479Z,19.23
2019-04-14T08:41:33.710Z,19.93
2019-04-14T08:44:13.087Z,18.83
2019-04-14T08:46:52.084Z,19.23
2019-04-14T08:49:22.319Z,20.47
2019-04-14T08:52:01.376Z,17.50
2019-04-14T08:54:43.380Z,18.50
2019-04-14T08:57:19.750Z,17.23
2019-04-14T08:59:50.018Z,20.57
2019-04-14T09:02:23.007Z,22.03
2019-04-14T09:05:02.117Z,19.83
2019-04-14T09:07:48.636Z,22.33
2019-04-14T09:10:20.416Z,19.00
2019-04-14T09:12:51.302Z,24.57
2019-04-14T09:15:20.404Z,21.53
2019-04-14T09:17:51.957Z,19.23
2019-04-14T09:20:20.746Z,24.30
2019-04-14T09:22:49.628Z,18.70
2019-04-14T09:25:18.500Z,21.87
2019-04-14T09:27:47.298Z,21.93
2019-04-14T09:30:18.129Z,19.97
2019-04-14T09:32:47.008Z,18.47
2019-04-14T09:35:15.824Z,21.67
2019-04-14T09:37:44.747Z,21.30
2019-04-14T09:40:14.292Z,15.23
2019-04-14T09:42:42.932Z,16.03
2019-04-14T09:45:11.626Z,18.97
2019-04-14T09:47:40.208Z,18.13
2019-04-14T09:50:08.933Z,16.17
2019-04-14T09:52:39.131Z,17.17
2019-04-14T09:55:07.990Z,15.90
2019-04-14T09:57:36.810Z,17.30
2019-04-14T10:00:06.970Z,16.83
2019-04-14T10:02:35.559Z,15.57
2019-04-14T10:05:05.861Z,15.40
2019-04-14T10:07:34.463Z,21.27
2019-04-14T10:10:04.470Z,19.87
2019-04-14T10:12:33.112Z,18.50
2019-04-14T10:15:01.680Z,15.57
2019-04-14T10:17:30.242Z,18.00
2019-04-14T10:19:58.879Z,17.30
2019-04-14T10:22:33.873Z,17.90
2019-04-14T10:24:57.629Z,18.00
2019-04-14T10:27:32.854Z,21.87
2019-04-14T10:30:06.865Z,18.27
2019-04-14T10:32:35.745Z,20.20
2019-04-14T10:35:05.446Z,19.70
2019-04-14T10:37:34.214Z,18.33
2019-04-14T10:40:05.968Z,20.00
2019-04-14T10:42:33.582Z,20.73
2019-04-14T10:45:02.273Z,21.33
2019-04-14T10:47:30.832Z,18.10
2019-04-14T10:50:03.696Z,19.90
2019-04-14T10:52:34.992Z,22.40
2019-04-14T10:55:04.549Z,21.00
2019-04-14T10:57:39.857Z,20.90
2019-04-14T11:00:10.997Z,20.20
2019-04-14T11:02:40.838Z,20.83
2019-04-14T11:05:12.478Z,23.67
2019-04-14T11:07:41.103Z,26.50
2019-04-14T11:10:10.219Z,20.87
2019-04-14T11:12:38.869Z,20.47
2019-04-14T11:15:09.550Z,19.50
2019-04-14T11:17:38.120Z,19.40
2019-04-14T11:20:09.610Z,23.30
2019-04-14T11:22:38.239Z,23.40
2019-04-14T11:25:07.081Z,25.93
2019-04-14T11:27:38.686Z,20.23
2019-04-14T11:30:09.322Z,25.40
2019-04-14T11:32:55.964Z,23.20
2019-04-14T11:35:32.221Z,20.87
2019-04-14T11:38:02.396Z,20.80
2019-04-14T11:40:34.665Z,19.73
2019-04-14T11:43:07.850Z,23.00
2019-04-14T11:45:36.448Z,21.63
2019-04-14T11:48:05.120Z,22.77
2019-04-14T11:50:33.705Z,22.37
2019-04-14T11:53:02.321Z,24.30
2019-04-14T11:55:31.043Z,21.67
2019-04-14T11:58:11.927Z,21.90
2019-04-14T12:00:58.317Z,21.43
2019-04-14T12:03:46.094Z,21.73
2019-04-14T12:06:19.185Z,23.17
2019-04-14T12:08:52.595Z,20.03
2019-04-14T12:11:27.230Z,20.90
2019-04-14T12:13:55.884Z,23.07
2019-04-14T12:16:27.179Z,19.07
2019-04-14T12:18:55.820Z,22.37
2019-04-14T12:21:24.400Z,20.87
2019-04-14T12:23:53.019Z,19.50
2019-04-14T12:26:21.586Z,17.53
2019-04-14T12:28:51.477Z,21.13
2019-04-14T12:31:21.758Z,21.90
2019-04-14T12:33:50.410Z,20.03
2019-04-14T12:36:19.060Z,22.20
2019-04-14T12:38:48.073Z,21.13
2019-04-14T12:41:24.173Z,19.97
2019-04-14T12:44:14.729Z,19.37
2019-04-14T12:46:44.950Z,16.77
2019-04-14T12:49:17.858Z,21.50
2019-04-14T12:51:53.820Z,18.77
2019-04-14T12:54:22.421Z,19.00
2019-04-14T12:56:51.050Z,19.47
2019-04-14T12:59:23.686Z,18.90
2019-04-14T13:01:56.991Z,22.33
2019-04-14T13:04:25.567Z,16.77
2019-04-14T13:06:54.167Z,22.00
2019-04-14T13:09:22.733Z,16.50
2019-04-14T13:11:51.400Z,17.03
2019-04-14T13:14:20.040Z,15.47
2019-04-14T13:16:48.595Z,18.63
2019-04-14T13:19:20.243Z,18.13
2019-04-14T13:21:54.921Z,18.50
2019-04-14T13:24:27.679Z,17.63
2019-04-14T13:26:56.466Z,18.60
2019-04-14T13:29:25.482Z,17.33
2019-04-14T13:31:54.132Z,15.13
2019-04-14T13:34:22.909Z,14.73
2019-04-14T13:37:03.281Z,18.10
2019-04-14T13:39:34.095Z,14.13
2019-04-14T13:42:05.618Z,16.60
2019-04-14T13:44:34.175Z,17.10
2019-04-14T13:47:02.822Z,13.70
2019-04-14T13:49:31.492Z,15.17
2019-04-14T13:52:00.046Z,15.20
2019-04-14T13:54:32.624Z,13.77
2019-04-14T13:57:01.192Z,13.83
2019-04-14T13:59:32.464Z,12.93
2019-04-14T14:02:01.066Z,11.77
2019-04-14T14:04:29.610Z,12.30
2019-04-14T14:06:58.218Z,10.70
2019-04-14T14:09:29.484Z,10.10
2019-04-14T14:12:05.134Z,8.40
2019-04-14T14:14:41.561Z,10.03
2019-04-14T14:17:28.093Z,7.47
2019-04-14T14:20:04.374Z,9.10
2019-04-14T14:22:45.313Z,9.10
2019-04-14T14:25:22.782Z,8.73
2019-04-14T14:27:51.747Z,7.00
2019-04-14T14:30:21.220Z,8.30
2019-04-14T14:32:52.818Z,7.97
2019-04-14T14:35:21.393Z,6.87
2019-04-14T14:37:49.984Z,8.77
2019-04-14T14:40:21.398Z,6.80
2019-04-14T14:42:49.955Z,7.77
2019-04-14T14:45:20.310Z,8.10
2019-04-14T14:48:06.949Z,7.23
2019-04-14T14:50:38.121Z,7.80
2019-04-14T14:53:12.318Z,6.40
2019-04-14T14:55:37.374Z,5.90
2019-04-14T14:58:06.043Z,6.00
2019-04-14T15:00:35.121Z,5.90
2019-04-14T15:03:07.928Z,7.53
2019-04-14T15:05:36.498Z,5.37
2019-04-14T15:08:05.114Z,5.90
2019-04-14T15:10:33.711Z,6.00
2019-04-14T15:13:02.404Z,5.63
2019-04-14T15:15:31.022Z,5.97
2019-04-14T15:17:59.593Z,6.10
2019-04-14T15:20:28.238Z,5.73
2019-04-14T15:22:56.920Z,7.83
2019-04-14T15:25:25.659Z,6.10
2019-04-14T15:27:54.237Z,6.40
2019-04-14T15:30:29.297Z,6.77
2019-04-14T15:32:57.934Z,6.00
2019-04-14T15:35:26.528Z,5.77
2019-04-14T15:37:55.414Z,5.10
2019-04-14T15:40:23.966Z,5.63
2019-04-14T15:42:53.566Z,6.23
2019-04-14T15:45:22.335Z,5.47
2019-04-14T15:47:50.938Z,5.43
2019-04-14T15:50:19.489Z,6.33
2019-04-14T15:52:48.344Z,6.23
2019-04-14T15:55:18.193Z,6.70
2019-04-14T15:57:51.246Z,6.47
2019-04-14T16:00:36.301Z,7.03
2019-04-14T16:03:09.220Z,6.83
2019-04-14T16:05:39.419Z,6.50
2019-04-14T16:08:09.632Z,6.63
2019-04-14T16:10:42.567Z,6.27
2019-04-14T16:13:12.829Z,6.27
2019-04-14T16:15:59.341Z,7.00
2019-04-14T16:18:45.601Z,7.57
2019-04-14T16:21:14.435Z,6.10
2019-04-14T16:23:50.334Z,6.63
2019-04-14T16:26:26.813Z,6.20
2019-04-14T16:29:02.513Z,8.03
2019-04-14T16:31:31.866Z,5.03
2019-04-14T16:34:02.074Z,5.73
2019-04-14T16:36:35.246Z,5.67
2019-04-14T16:39:05.924Z,6.27
2019-04-14T16:41:34.530Z,5.53
2019-04-14T16:44:03.728Z,5.03
2019-04-14T16:46:32.356Z,5.57
2019-04-14T16:49:01.799Z,5.23
2019-04-14T16:51:48.047Z,5.30
2019-04-14T16:54:18.263Z,7.23
2019-04-14T16:57:05.910Z,6.80
2019-04-14T16:59:35.022Z,6.30
2019-04-14T17:02:10.782Z,7.43
2019-04-14T17:04:33.874Z,8.40
2019-04-14T17:07:02.474Z,7.80
2019-04-14T17:09:31.039Z,7.73
2019-04-14T17:12:04.158Z,7.87
2019-04-14T17:14:39.992Z,7.10
2019-04-14T17:17:12.838Z,8.90
2019-04-14T17:19:43.089Z,8.30
2019-04-14T17:22:22.346Z,8.03
2019-04-14T17:25:04.356Z,7.53
2019-04-14T17:27:34.632Z,6.97
2019-04-14T17:30:31.434Z,7.83
2019-04-14T17:33:05.680Z,8.13
2019-04-14T17:35:41.576Z,8.53
2019-04-14T17:38:14.752Z,9.03
2019-04-14T17:41:02.962Z,7.20
2019-04-14T17:43:33.156Z,8.80
2019-04-14T17:46:12.300Z,6.97
2019-04-14T17:49:00.358Z,7.93
2019-04-14T17:51:33.480Z,7.03
2019-04-14T17:54:28.381Z,8.07
2019-04-14T17:56:50.694Z,8.53
2019-04-14T17:59:23.306Z,7.27
2019-04-14T18:02:05.332Z,7.43
2019-04-14T18:04:41.293Z,7.53
2019-04-14T18:07:16.167Z,7.50
2019-04-14T18:10:02.497Z,7.40
2019-04-14T18:12:35.945Z,8.37
2019-04-14T18:15:11.445Z,7.43
2019-04-14T18:17:40.487Z,7.00
2019-04-14T18:20:10.912Z,7.67
2019-04-14T18:22:39.525Z,7.60
2019-04-14T18:25:08.792Z,7.97
2019-04-14T18:27:55.330Z,6.97
2019-04-14T18:30:25.558Z,7.40
2019-04-14T18:32:58.503Z,8.13
2019-04-14T18:35:28.752Z,7.17
2019-04-14T18:38:15.176Z,9.07
2019-04-14T18:40:48.067Z,8.53
2019-04-14T18:43:22.085Z,9.53
2019-04-14T18:45:58.700Z,8.00
2019-04-14T18:48:31.766Z,6.83
2019-04-14T18:51:21.628Z,8.30
2019-04-14T18:53:58.399Z,9.17
2019-04-14T18:56:40.427Z,8.33
2019-04-14T18:59:29.559Z,7.00
2019-04-14T19:01:58.473Z,12.23
2019-04-14T19:04:27.046Z,8.17
2019-04-14T19:06:55.599Z,7.57
2019-04-14T19:09:24.252Z,9.43
2019-04-14T19:12:12.751Z,7.80
2019-04-14T19:14:42.097Z,7.73
2019-04-14T19:17:12.296Z,7.83
2019-04-14T19:19:42.954Z,7.67
2019-04-14T19:22:11.549Z,9.23
2019-04-14T19:24:40.100Z,8.47
2019-04-14T19:27:09.066Z,7.93
2019-04-14T19:29:37.751Z,7.83
2019-04-14T19:32:28.661Z,8.30
2019-04-14T19:34:57.250Z,8.83
2019-04-14T19:37:28.709Z,9.00
2019-04-14T19:39:57.380Z,8.97
2019-04-14T19:42:28.157Z,7.70
2019-04-14T19:47:31.930Z,8.77
2019-04-14T19:50:00.495Z,9.13
2019-04-14T19:52:29.130Z,8.37
2019-04-14T19:54:57.766Z,6.83
2019-04-14T19:57:32.426Z,8.97
2019-04-14T20:00:01.100Z,7.43
2019-04-14T20:02:30.385Z,8.57
2019-04-14T20:04:59.260Z,7.10
2019-04-14T20:07:27.816Z,8.20
2019-04-14T20:09:56.379Z,9.40
2019-04-14T20:12:24.978Z,9.17
2019-04-14T20:14:54.840Z,9.17
2019-04-14T20:17:24.980Z,8.40
2019-04-14T20:19:55.208Z,8.77
2019-04-14T20:22:31.631Z,7.40
2019-04-14T20:25:01.865Z,8.60
2019-04-14T20:27:34.932Z,7.67
2019-04-14T20:30:14.522Z,9.57
2019-04-14T20:32:44.860Z,7.67
2019-04-14T20:35:13.551Z,10.17
2019-04-14T20:37:42.161Z,7.33
2019-04-14T20:40:10.877Z,8.37
2019-04-14T20:42:39.603Z,12.13
2019-04-14T20:45:10.259Z,8.53
2019-04-14T20:47:40.451Z,10.00
2019-04-14T20:50:13.305Z,9.63
2019-04-14T20:52:42.439Z,8.13
2019-04-14T20:55:11.453Z,8.93
2019-04-14T20:57:40.069Z,9.13
2019-04-14T21:00:12.256Z,9.00
2019-04-14T21:02:58.608Z,8.40
2019-04-14T21:05:28.873Z,9.30
2019-04-14T21:08:18.224Z,11.37
2019-04-14T21:11:03.513Z,10.20
2019-04-14T21:13:46.441Z,10.23
2019-04-14T21:16:34.191Z,9.97
2019-04-14T21:19:17.198Z,8.63
2019-04-14T21:21:49.124Z,10.53
2019-04-14T21:24:24.801Z,8.50
2019-04-14T21:26:55.026Z,9.47
2019-04-14T21:29:25.235Z,10.70
2019-04-14T21:32:01.718Z,11.40
2019-04-14T21:34:32.064Z,10.23
2019-04-14T21:37:04.998Z,9.90
2019-04-14T21:39:44.010Z,10.57
2019-04-14T21:42:13.794Z,10.83
2019-04-14T21:44:42.487Z,10.83
2019-04-14T21:47:13.777Z,11.27
2019-04-14T21:49:42.448Z,11.27
2019-04-14T21:52:14.186Z,9.47
2019-04-14T21:54:44.720Z,9.50
2019-04-14T21:57:14.956Z,11.23
2019-04-14T21:59:45.160Z,9.13
2019-04-14T22:02:18.232Z,10.73
2019-04-14T22:04:53.954Z,11.00
2019-04-14T22:07:26.748Z,11.10
2019-04-14T22:09:57.706Z,11.23
2019-04-14T22:12:26.390Z,11.77
2019-04-14T22:14:55.034Z,10.57
2019-04-14T22:17:23.611Z,12.23
2019-04-14T22:19:52.189Z,11.70
2019-04-14T22:22:20.738Z,11.33
2019-04-14T22:24:49.393Z,10.73
2019-04-14T22:27:18.238Z,11.13
2019-04-14T22:29:47.299Z,10.70
2019-04-14T22:32:15.888Z,11.27
2019-04-14T22:34:44.447Z,12.93
2019-04-14T22:37:14.609Z,10.17
2019-04-14T22:39:44.737Z,9.60
2019-04-14T22:42:13.362Z,12.17
2019-04-14T22:44:41.956Z,11.80
2019-04-14T22:47:10.517Z,10.43
2019-04-14T22:49:39.177Z,11.50
2019-04-14T22:52:07.813Z,14.10
2019-04-14T22:54:36.401Z,12.17
2019-04-14T22:57:05.393Z,11.80
2019-04-14T22:59:33.947Z,12.03
2019-04-14T23:02:16.338Z,14.63
2019-04-14T23:05:02.521Z,14.20
2019-04-14T23:07:34.360Z,13.50
2019-04-14T23:10:19.771Z,12.60
2019-04-14T23:12:58.464Z,14.13
2019-04-14T23:15:28.689Z,16.73
2019-04-14T23:17:58.903Z,15.83
2019-04-14T23:20:38.019Z,12.20
2019-04-14T23:23:10.969Z,12.23
2019-04-14T23:25:39.624Z,16.00
2019-04-14T23:28:08.252Z,13.57
2019-04-14T23:30:37.692Z,14.60
2019-04-14T23:33:06.407Z,12.60
2019-04-14T23:35:35.037Z,14.33
2019-04-14T23:38:06.113Z,12.67
2019-04-14T23:40:34.741Z,17.00
2019-04-14T23:43:07.912Z,13.87
2019-04-14T23:45:39.548Z,12.90
2019-04-14T23:48:08.212Z,15.70
2019-04-14T23:50:37.116Z,16.00
2019-04-14T23:53:05.753Z,14.03
2019-04-14T23:55:34.413Z,12.53
2019-04-14T23:58:03.036Z,14.17
